sensor_id;sensor_type;location;lat;lon;timestamp;temperature;humidity
10390;DHT22;5241;47.830;12.972;2022-10-16T00:01:56;13.90;99.90
10390;DHT22;5241;47.830;12.972;2022-10-16T00:04:22;13.90;99.90
10390;DHT22;5241;47.830;12.972;2022-10-16T00:06:48;13.80;99.90
10390;DHT22;5241;47.830;12.972;2022-10-16T00:09:13;13.80;99.90
10390;DHT22;5241;47.830;12.972;2022-10-16T00:11:40;13.70;99.90
10390;DHT22;5241;47.830;12.972;2022-10-16T00:14:08;13.80;99.90
10390;DHT22;5241;47.830;12.972;2022-10-16T00:16:34;13.80;99.90
10390;DHT22;5241;47.830;12.972;2022-10-16T00:19:00;13.80;99.90
10390;DHT22;5241;47.830;12.972;2022-10-16T00:21:28;13.90;99.90
10390;DHT22;5241;47.830;12.972;2022-10-16T00:24:02;13.90;99.90
10390;DHT22;5241;47.830;12.972;2022-10-16T00:26:31;13.90;99.90
10390;DHT22;5241;47.830;12.972;2022-10-16T00:28:57;13.90;99.90
10390;DHT22;5241;47.830;12.972;2022-10-16T00:31:24;13.90;99.90
10390;DHT22;5241;47.830;12.972;2022-10-16T00:33:50;13.90;99.90
10390;DHT22;5241;47.830;12.972;2022-10-16T00:36:18;13.90;99.90
10390;DHT22;5241;47.830;12.972;2022-10-16T00:38:44;13.90;99.90
10390;DHT22;5241;47.830;12.972;2022-10-16T00:41:14;13.90;99.90
10390;DHT22;5241;47.830;12.972;2022-10-16T00:44:01;13.90;99.90
10390;DHT22;5241;47.830;12.972;2022-10-16T00:46:40;14.00;99.90
10390;DHT22;5241;47.830;12.972;2022-10-16T00:49:15;14.00;99.90
10390;DHT22;5241;47.830;12.972;2022-10-16T00:51:50;14.00;99.90
10390;DHT22;5241;47.830;12.972;2022-10-16T00:54:30;14.00;99.90
10390;DHT22;5241;47.830;12.972;2022-10-16T00:56:59;14.00;99.90
10390;DHT22;5241;47.830;12.972;2022-10-16T00:59:28;14.00;99.90
10390;DHT22;5241;47.830;12.972;2022-10-16T01:01:55;14.00;99.90
10390;DHT22;5241;47.830;12.972;2022-10-16T01:04:21;14.00;99.90
10390;DHT22;5241;47.830;12.972;2022-10-16T01:13:01;13.90;99.90
10390;DHT22;5241;47.830;12.972;2022-10-16T01:18:30;13.80;99.90
10390;DHT22;5241;47.830;12.972;2022-10-16T01:31:57;13.50;99.90
10390;DHT22;5241;47.830;12.972;2022-10-16T01:34:55;13.50;99.90
10390;DHT22;5241;47.830;12.972;2022-10-16T01:37:38;13.50;99.90
10390;DHT22;5241;47.830;12.972;2022-10-16T01:40:09;13.30;99.90
10390;DHT22;5241;47.830;12.972;2022-10-16T01:42:40;13.30;99.90
10390;DHT22;5241;47.830;12.972;2022-10-16T01:45:08;13.30;99.90
10390;DHT22;5241;47.830;12.972;2022-10-16T01:47:37;13.40;99.90
10390;DHT22;5241;47.830;12.972;2022-10-16T01:50:04;13.40;99.90
10390;DHT22;5241;47.830;12.972;2022-10-16T01:52:32;13.40;99.90
10390;DHT22;5241;47.830;12.972;2022-10-16T01:55:00;13.40;99.90
10390;DHT22;5241;47.830;12.972;2022-10-16T01:57:28;13.50;99.90
10390;DHT22;5241;47.830;12.972;2022-10-16T01:59:59;13.40;99.90
10390;DHT22;5241;47.830;12.972;2022-10-16T02:02:28;13.40;99.90
10390;DHT22;5241;47.830;12.972;2022-10-16T02:04:59;13.40;99.90
10390;DHT22;5241;47.830;12.972;2022-10-16T02:07:27;13.40;99.90
10390;DHT22;5241;47.830;12.972;2022-10-16T02:09:52;13.40;99.90
10390;DHT22;5241;47.830;12.972;2022-10-16T02:12:28;13.50;99.90
10390;DHT22;5241;47.830;12.972;2022-10-16T02:14:54;13.50;99.90
10390;DHT22;5241;47.830;12.972;2022-10-16T02:17:20;13.50;99.90
10390;DHT22;5241;47.830;12.972;2022-10-16T02:19:48;13.50;99.90
10390;DHT22;5241;47.830;12.972;2022-10-16T02:22:24;13.50;99.90
10390;DHT22;5241;47.830;12.972;2022-10-16T02:25:17;13.50;99.90
10390;DHT22;5241;47.830;12.972;2022-10-16T02:27:51;13.50;99.90
10390;DHT22;5241;47.830;12.972;2022-10-16T02:30:29;13.50;99.90
10390;DHT22;5241;47.830;12.972;2022-10-16T02:32:56;13.50;99.90
10390;DHT22;5241;47.830;12.972;2022-10-16T02:35:24;13.50;99.90
10390;DHT22;5241;47.830;12.972;2022-10-16T02:37:50;13.40;99.90
10390;DHT22;5241;47.830;12.972;2022-10-16T02:40:17;13.30;99.90
10390;DHT22;5241;47.830;12.972;2022-10-16T02:42:43;13.40;99.90
10390;DHT22;5241;47.830;12.972;2022-10-16T02:45:10;13.30;99.90
10390;DHT22;5241;47.830;12.972;2022-10-16T02:47:36;13.20;99.90
10390;DHT22;5241;47.830;12.972;2022-10-16T02:50:02;13.30;99.90
10390;DHT22;5241;47.830;12.972;2022-10-16T02:52:28;13.30;99.90
10390;DHT22;5241;47.830;12.972;2022-10-16T02:54:54;13.40;99.90
10390;DHT22;5241;47.830;12.972;2022-10-16T02:57:19;13.40;99.90
10390;DHT22;5241;47.830;12.972;2022-10-16T02:59:45;13.40;99.90
10390;DHT22;5241;47.830;12.972;2022-10-16T03:02:10;13.40;99.90
10390;DHT22;5241;47.830;12.972;2022-10-16T03:04:37;13.40;99.90
10390;DHT22;5241;47.830;12.972;2022-10-16T03:07:03;13.40;99.90
10390;DHT22;5241;47.830;12.972;2022-10-16T03:09:29;13.50;99.90
10390;DHT22;5241;47.830;12.972;2022-10-16T03:11:54;13.40;99.90
10390;DHT22;5241;47.830;12.972;2022-10-16T03:14:20;13.30;99.90
10390;DHT22;5241;47.830;12.972;2022-10-16T03:16:45;13.30;99.90
10390;DHT22;5241;47.830;12.972;2022-10-16T03:19:11;13.20;99.90
10390;DHT22;5241;47.830;12.972;2022-10-16T03:21:36;13.20;99.90
10390;DHT22;5241;47.830;12.972;2022-10-16T03:24:02;13.20;99.90
10390;DHT22;5241;47.830;12.972;2022-10-16T03:26:28;13.10;99.90
10390;DHT22;5241;47.830;12.972;2022-10-16T03:28:53;13.20;99.90
10390;DHT22;5241;47.830;12.972;2022-10-16T03:31:19;13.20;99.90
10390;DHT22;5241;47.830;12.972;2022-10-16T03:33:44;13.30;99.90
10390;DHT22;5241;47.830;12.972;2022-10-16T03:36:10;13.30;99.90
10390;DHT22;5241;47.830;12.972;2022-10-16T03:38:35;13.30;99.90
10390;DHT22;5241;47.830;12.972;2022-10-16T03:41:01;13.30;99.90
10390;DHT22;5241;47.830;12.972;2022-10-16T03:43:26;13.30;99.90
10390;DHT22;5241;47.830;12.972;2022-10-16T03:45:52;13.30;99.90
10390;DHT22;5241;47.830;12.972;2022-10-16T03:48:19;13.30;99.90
10390;DHT22;5241;47.830;12.972;2022-10-16T03:50:45;13.40;99.90
10390;DHT22;5241;47.830;12.972;2022-10-16T03:53:13;13.40;99.90
10390;DHT22;5241;47.830;12.972;2022-10-16T03:55:41;13.40;99.90
10390;DHT22;5241;47.830;12.972;2022-10-16T03:58:07;13.30;99.90
10390;DHT22;5241;47.830;12.972;2022-10-16T04:00:33;13.30;99.90
10390;DHT22;5241;47.830;12.972;2022-10-16T04:02:59;13.40;99.90
10390;DHT22;5241;47.830;12.972;2022-10-16T04:05:25;13.40;99.90
10390;DHT22;5241;47.830;12.972;2022-10-16T04:07:51;13.30;99.90
10390;DHT22;5241;47.830;12.972;2022-10-16T04:10:16;13.30;99.90
10390;DHT22;5241;47.830;12.972;2022-10-16T04:12:42;13.30;99.90
10390;DHT22;5241;47.830;12.972;2022-10-16T04:15:08;13.30;99.90
10390;DHT22;5241;47.830;12.972;2022-10-16T04:17:33;13.30;99.90
10390;DHT22;5241;47.830;12.972;2022-10-16T04:19:59;13.30;99.90
10390;DHT22;5241;47.830;12.972;2022-10-16T04:22:25;13.30;99.90
10390;DHT22;5241;47.830;12.972;2022-10-16T04:24:50;13.40;99.90
10390;DHT22;5241;47.830;12.972;2022-10-16T04:27:16;13.30;99.90
10390;DHT22;5241;47.830;12.972;2022-10-16T04:29:41;13.30;99.90
10390;DHT22;5241;47.830;12.972;2022-10-16T04:32:09;13.20;99.90
10390;DHT22;5241;47.830;12.972;2022-10-16T04:34:34;13.30;99.90
10390;DHT22;5241;47.830;12.972;2022-10-16T04:37:00;13.30;99.90
10390;DHT22;5241;47.830;12.972;2022-10-16T04:39:26;13.30;99.90
10390;DHT22;5241;47.830;12.972;2022-10-16T04:41:51;13.30;99.90
10390;DHT22;5241;47.830;12.972;2022-10-16T04:44:17;13.30;99.90
10390;DHT22;5241;47.830;12.972;2022-10-16T04:46:42;13.30;99.90
10390;DHT22;5241;47.830;12.972;2022-10-16T04:49:09;13.30;99.90
10390;DHT22;5241;47.830;12.972;2022-10-16T04:51:35;13.40;99.90
10390;DHT22;5241;47.830;12.972;2022-10-16T04:54:01;13.40;99.90
10390;DHT22;5241;47.830;12.972;2022-10-16T04:56:26;13.30;99.90
10390;DHT22;5241;47.830;12.972;2022-10-16T04:58:52;13.30;99.90
10390;DHT22;5241;47.830;12.972;2022-10-16T05:01:18;13.30;99.90
10390;DHT22;5241;47.830;12.972;2022-10-16T05:03:43;13.30;99.90
10390;DHT22;5241;47.830;12.972;2022-10-16T05:06:09;13.30;99.90
10390;DHT22;5241;47.830;12.972;2022-10-16T05:08:34;13.20;99.90
10390;DHT22;5241;47.830;12.972;2022-10-16T05:11:00;13.20;99.90
10390;DHT22;5241;47.830;12.972;2022-10-16T05:13:26;13.10;99.90
10390;DHT22;5241;47.830;12.972;2022-10-16T05:15:52;13.00;99.90
10390;DHT22;5241;47.830;12.972;2022-10-16T05:18:17;12.90;99.90
10390;DHT22;5241;47.830;12.972;2022-10-16T05:20:43;12.90;99.90
10390;DHT22;5241;47.830;12.972;2022-10-16T05:23:09;12.90;99.90
10390;DHT22;5241;47.830;12.972;2022-10-16T05:25:36;13.00;99.90
10390;DHT22;5241;47.830;12.972;2022-10-16T05:28:02;13.00;99.90
10390;DHT22;5241;47.830;12.972;2022-10-16T05:30:28;12.90;99.90
10390;DHT22;5241;47.830;12.972;2022-10-16T05:32:53;12.90;99.90
10390;DHT22;5241;47.830;12.972;2022-10-16T05:35:19;12.80;99.90
10390;DHT22;5241;47.830;12.972;2022-10-16T05:37:45;12.90;99.90
10390;DHT22;5241;47.830;12.972;2022-10-16T05:40:11;12.90;99.90
10390;DHT22;5241;47.830;12.972;2022-10-16T05:42:38;12.90;99.90
10390;DHT22;5241;47.830;12.972;2022-10-16T05:45:05;12.90;99.90
10390;DHT22;5241;47.830;12.972;2022-10-16T05:47:31;12.90;99.90
10390;DHT22;5241;47.830;12.972;2022-10-16T05:49:57;13.00;99.90
10390;DHT22;5241;47.830;12.972;2022-10-16T05:52:22;13.00;99.90
10390;DHT22;5241;47.830;12.972;2022-10-16T05:54:48;13.00;99.90
10390;DHT22;5241;47.830;12.972;2022-10-16T05:57:14;13.00;99.90
10390;DHT22;5241;47.830;12.972;2022-10-16T05:59:39;13.00;99.90
10390;DHT22;5241;47.830;12.972;2022-10-16T06:02:05;13.00;99.90
10390;DHT22;5241;47.830;12.972;2022-10-16T06:04:30;13.00;99.90
10390;DHT22;5241;47.830;12.972;2022-10-16T06:06:58;13.10;99.90
10390;DHT22;5241;47.830;12.972;2022-10-16T06:09:25;13.20;99.90
10390;DHT22;5241;47.830;12.972;2022-10-16T06:11:51;13.20;99.90
10390;DHT22;5241;47.830;12.972;2022-10-16T06:14:17;13.30;99.90
10390;DHT22;5241;47.830;12.972;2022-10-16T06:16:42;13.40;99.90
10390;DHT22;5241;47.830;12.972;2022-10-16T06:19:08;13.50;99.90
10390;DHT22;5241;47.830;12.972;2022-10-16T06:21:34;13.60;99.90
10390;DHT22;5241;47.830;12.972;2022-10-16T06:24:00;13.60;99.90
10390;DHT22;5241;47.830;12.972;2022-10-16T06:26:27;13.60;99.90
10390;DHT22;5241;47.830;12.972;2022-10-16T06:28:55;13.70;99.90
10390;DHT22;5241;47.830;12.972;2022-10-16T06:31:21;13.80;99.90
10390;DHT22;5241;47.830;12.972;2022-10-16T06:33:51;13.80;99.90
10390;DHT22;5241;47.830;12.972;2022-10-16T06:36:17;13.80;99.90
10390;DHT22;5241;47.830;12.972;2022-10-16T06:38:43;13.90;99.90
10390;DHT22;5241;47.830;12.972;2022-10-16T06:41:14;13.90;99.90
10390;DHT22;5241;47.830;12.972;2022-10-16T06:43:40;13.80;99.90
10390;DHT22;5241;47.830;12.972;2022-10-16T06:46:07;13.90;99.90
10390;DHT22;5241;47.830;12.972;2022-10-16T06:48:35;13.90;99.90
10390;DHT22;5241;47.830;12.972;2022-10-16T06:53:37;14.00;99.90
10390;DHT22;5241;47.830;12.972;2022-10-16T06:56:29;14.20;99.90
10390;DHT22;5241;47.830;12.972;2022-10-16T06:58:56;14.20;99.90
10390;DHT22;5241;47.830;12.972;2022-10-16T07:01:23;14.40;99.90
10390;DHT22;5241;47.830;12.972;2022-10-16T07:03:49;14.60;99.90
10390;DHT22;5241;47.830;12.972;2022-10-16T07:06:18;14.70;99.90
10390;DHT22;5241;47.830;12.972;2022-10-16T07:08:45;14.90;99.90
10390;DHT22;5241;47.830;12.972;2022-10-16T07:11:13;15.00;99.90
10390;DHT22;5241;47.830;12.972;2022-10-16T07:13:41;15.10;99.90
10390;DHT22;5241;47.830;12.972;2022-10-16T07:16:15;15.20;99.90
10390;DHT22;5241;47.830;12.972;2022-10-16T07:18:41;15.30;99.90
10390;DHT22;5241;47.830;12.972;2022-10-16T07:21:10;15.30;99.90
10390;DHT22;5241;47.830;12.972;2022-10-16T07:23:36;15.40;99.90
10390;DHT22;5241;47.830;12.972;2022-10-16T07:26:03;15.40;99.90
10390;DHT22;5241;47.830;12.972;2022-10-16T07:28:28;15.50;99.90
10390;DHT22;5241;47.830;12.972;2022-10-16T07:30:54;15.50;99.90
10390;DHT22;5241;47.830;12.972;2022-10-16T07:33:20;15.60;99.90
10390;DHT22;5241;47.830;12.972;2022-10-16T07:35:53;15.60;99.90
10390;DHT22;5241;47.830;12.972;2022-10-16T07:38:19;15.60;99.90
10390;DHT22;5241;47.830;12.972;2022-10-16T07:40:45;15.50;99.90
10390;DHT22;5241;47.830;12.972;2022-10-16T07:43:11;15.50;99.90
10390;DHT22;5241;47.830;12.972;2022-10-16T07:45:37;15.60;99.90
10390;DHT22;5241;47.830;12.972;2022-10-16T07:48:03;15.60;99.90
10390;DHT22;5241;47.830;12.972;2022-10-16T07:50:29;15.60;99.90
10390;DHT22;5241;47.830;12.972;2022-10-16T07:52:54;15.80;99.90
10390;DHT22;5241;47.830;12.972;2022-10-16T07:55:20;15.90;99.90
10390;DHT22;5241;47.830;12.972;2022-10-16T07:57:45;16.10;99.90
10390;DHT22;5241;47.830;12.972;2022-10-16T08:00:11;16.40;99.90
10390;DHT22;5241;47.830;12.972;2022-10-16T08:02:40;16.50;99.90
10390;DHT22;5241;47.830;12.972;2022-10-16T08:05:06;16.70;99.90
10390;DHT22;5241;47.830;12.972;2022-10-16T08:07:32;16.80;99.90
10390;DHT22;5241;47.830;12.972;2022-10-16T08:09:58;17.00;99.90
10390;DHT22;5241;47.830;12.972;2022-10-16T08:12:25;17.20;99.90
10390;DHT22;5241;47.830;12.972;2022-10-16T08:14:51;17.70;99.90
10390;DHT22;5241;47.830;12.972;2022-10-16T08:17:16;18.20;99.90
10390;DHT22;5241;47.830;12.972;2022-10-16T08:19:46;18.50;99.90
10390;DHT22;5241;47.830;12.972;2022-10-16T08:22:13;18.90;99.90
10390;DHT22;5241;47.830;12.972;2022-10-16T08:24:38;19.30;99.90
10390;DHT22;5241;47.830;12.972;2022-10-16T08:27:04;19.70;99.90
10390;DHT22;5241;47.830;12.972;2022-10-16T08:29:30;19.90;99.90
10390;DHT22;5241;47.830;12.972;2022-10-16T08:31:55;20.10;99.90
10390;DHT22;5241;47.830;12.972;2022-10-16T08:34:21;20.10;99.90
10390;DHT22;5241;47.830;12.972;2022-10-16T08:36:46;20.10;99.90
10390;DHT22;5241;47.830;12.972;2022-10-16T08:39:12;20.10;99.90
10390;DHT22;5241;47.830;12.972;2022-10-16T08:41:49;20.30;99.90
10390;DHT22;5241;47.830;12.972;2022-10-16T08:47:40;20.60;99.90
10390;DHT22;5241;47.830;12.972;2022-10-16T08:50:11;20.80;99.90
10390;DHT22;5241;47.830;12.972;2022-10-16T08:52:40;20.80;99.90
10390;DHT22;5241;47.830;12.972;2022-10-16T08:55:20;20.90;99.90
10390;DHT22;5241;47.830;12.972;2022-10-16T08:57:47;21.20;99.90
10390;DHT22;5241;47.830;12.972;2022-10-16T09:00:13;21.20;99.90
10390;DHT22;5241;47.830;12.972;2022-10-16T09:02:53;21.20;99.90
10390;DHT22;5241;47.830;12.972;2022-10-16T09:18:41;21.60;99.90
10390;DHT22;5241;47.830;12.972;2022-10-16T09:21:26;21.60;99.90
10390;DHT22;5241;47.830;12.972;2022-10-16T09:23:54;21.60;99.90
10390;DHT22;5241;47.830;12.972;2022-10-16T09:26:23;21.70;99.90
10390;DHT22;5241;47.830;12.972;2022-10-16T09:28:48;21.60;99.90
10390;DHT22;5241;47.830;12.972;2022-10-16T09:31:17;21.60;99.90
10390;DHT22;5241;47.830;12.972;2022-10-16T09:33:47;21.80;99.90
10390;DHT22;5241;47.830;12.972;2022-10-16T09:36:13;21.80;99.90
10390;DHT22;5241;47.830;12.972;2022-10-16T09:38:40;21.80;99.90
10390;DHT22;5241;47.830;12.972;2022-10-16T09:41:20;22.00;99.90
10390;DHT22;5241;47.830;12.972;2022-10-16T09:43:47;22.20;99.90
10390;DHT22;5241;47.830;12.972;2022-10-16T09:46:29;22.50;99.90
10390;DHT22;5241;47.830;12.972;2022-10-16T09:49:00;22.70;99.90
10390;DHT22;5241;47.830;12.972;2022-10-16T09:51:35;22.80;99.90
10390;DHT22;5241;47.830;12.972;2022-10-16T09:56:35;22.80;99.90
10390;DHT22;5241;47.830;12.972;2022-10-16T09:59:31;23.30;99.90
10390;DHT22;5241;47.830;12.972;2022-10-16T10:02:00;23.60;99.90
10390;DHT22;5241;47.830;12.972;2022-10-16T10:04:41;23.90;99.90
10390;DHT22;5241;47.830;12.972;2022-10-16T10:07:18;23.90;99.90
10390;DHT22;5241;47.830;12.972;2022-10-16T10:09:44;24.10;99.90
10390;DHT22;5241;47.830;12.972;2022-10-16T10:12:28;24.00;99.90
10390;DHT22;5241;47.830;12.972;2022-10-16T10:14:56;24.10;99.80
10390;DHT22;5241;47.830;12.972;2022-10-16T10:17:24;24.20;98.90
10390;DHT22;5241;47.830;12.972;2022-10-16T10:22:28;24.60;98.70
10390;DHT22;5241;47.830;12.972;2022-10-16T10:31:03;25.10;95.80
10390;DHT22;5241;47.830;12.972;2022-10-16T10:33:38;25.00;97.40
10390;DHT22;5241;47.830;12.972;2022-10-16T10:36:27;25.20;95.30
10390;DHT22;5241;47.830;12.972;2022-10-16T10:42:03;25.90;92.70
10390;DHT22;5241;47.830;12.972;2022-10-16T10:47:58;25.90;92.20
10390;DHT22;5241;47.830;12.972;2022-10-16T10:50:31;25.70;93.10
10390;DHT22;5241;47.830;12.972;2022-10-16T10:55:46;26.30;92.50
10390;DHT22;5241;47.830;12.972;2022-10-16T11:02:06;27.00;87.80
10390;DHT22;5241;47.830;12.972;2022-10-16T11:04:49;27.30;90.60
10390;DHT22;5241;47.830;12.972;2022-10-16T11:07:27;27.50;87.10
10390;DHT22;5241;47.830;12.972;2022-10-16T11:09:58;28.00;83.70
10390;DHT22;5241;47.830;12.972;2022-10-16T11:12:32;27.70;87.20
10390;DHT22;5241;47.830;12.972;2022-10-16T11:17:48;28.30;81.30
10390;DHT22;5241;47.830;12.972;2022-10-16T11:20:21;28.40;82.90
10390;DHT22;5241;47.830;12.972;2022-10-16T11:22:52;28.20;80.50
10390;DHT22;5241;47.830;12.972;2022-10-16T11:30:25;27.70;79.60
10390;DHT22;5241;47.830;12.972;2022-10-16T11:40:54;27.80;78.10
10390;DHT22;5241;47.830;12.972;2022-10-16T11:43:42;28.20;76.50
10390;DHT22;5241;47.830;12.972;2022-10-16T11:46:12;28.80;74.20
10390;DHT22;5241;47.830;12.972;2022-10-16T11:54:49;29.60;74.30
10390;DHT22;5241;47.830;12.972;2022-10-16T11:57:20;29.90;70.50
10390;DHT22;5241;47.830;12.972;2022-10-16T11:59:58;29.80;70.20
10390;DHT22;5241;47.830;12.972;2022-10-16T12:10:31;28.50;74.30
10390;DHT22;5241;47.830;12.972;2022-10-16T12:12:59;28.90;68.60
10390;DHT22;5241;47.830;12.972;2022-10-16T12:15:31;29.40;66.70
10390;DHT22;5241;47.830;12.972;2022-10-16T12:17:57;29.70;66.10
10390;DHT22;5241;47.830;12.972;2022-10-16T12:20:33;30.10;68.10
10390;DHT22;5241;47.830;12.972;2022-10-16T12:23:05;29.90;62.70
10390;DHT22;5241;47.830;12.972;2022-10-16T12:25:33;29.60;61.20
10390;DHT22;5241;47.830;12.972;2022-10-16T12:28:04;29.40;65.00
10390;DHT22;5241;47.830;12.972;2022-10-16T12:30:34;29.30;66.80
10390;DHT22;5241;47.830;12.972;2022-10-16T12:33:06;29.40;65.70
10390;DHT22;5241;47.830;12.972;2022-10-16T12:35:35;29.90;66.00
10390;DHT22;5241;47.830;12.972;2022-10-16T12:40:43;30.10;59.80
10390;DHT22;5241;47.830;12.972;2022-10-16T12:43:34;29.80;58.70
10390;DHT22;5241;47.830;12.972;2022-10-16T12:48:33;30.00;61.60
10390;DHT22;5241;47.830;12.972;2022-10-16T12:51:10;30.10;57.30
10390;DHT22;5241;47.830;12.972;2022-10-16T12:53:36;29.80;59.80
10390;DHT22;5241;47.830;12.972;2022-10-16T12:56:19;29.40;63.10
10390;DHT22;5241;47.830;12.972;2022-10-16T13:04:17;28.80;60.10
10390;DHT22;5241;47.830;12.972;2022-10-16T13:09:30;28.80;62.90
10390;DHT22;5241;47.830;12.972;2022-10-16T13:14:55;28.10;66.30
10390;DHT22;5241;47.830;12.972;2022-10-16T13:17:50;28.50;62.30
10390;DHT22;5241;47.830;12.972;2022-10-16T13:20:31;28.10;66.40
10390;DHT22;5241;47.830;12.972;2022-10-16T13:23:17;27.50;66.60
10390;DHT22;5241;47.830;12.972;2022-10-16T13:28:21;26.80;67.80
10390;DHT22;5241;47.830;12.972;2022-10-16T13:30:54;26.60;70.30
10390;DHT22;5241;47.830;12.972;2022-10-16T13:33:35;26.30;68.20
10390;DHT22;5241;47.830;12.972;2022-10-16T13:36:02;26.00;68.30
10390;DHT22;5241;47.830;12.972;2022-10-16T13:38:31;25.60;66.40
10390;DHT22;5241;47.830;12.972;2022-10-16T13:41:05;25.40;65.80
10390;DHT22;5241;47.830;12.972;2022-10-16T13:43:40;25.20;64.80
10390;DHT22;5241;47.830;12.972;2022-10-16T13:46:12;24.70;71.00
10390;DHT22;5241;47.830;12.972;2022-10-16T13:48:38;24.50;71.80
10390;DHT22;5241;47.830;12.972;2022-10-16T13:53:34;24.10;69.40
10390;DHT22;5241;47.830;12.972;2022-10-16T13:56:02;24.00;70.30
10390;DHT22;5241;47.830;12.972;2022-10-16T13:58:28;23.90;70.90
10390;DHT22;5241;47.830;12.972;2022-10-16T14:00:59;23.60;76.20
10390;DHT22;5241;47.830;12.972;2022-10-16T14:03:25;23.20;75.40
10390;DHT22;5241;47.830;12.972;2022-10-16T14:05:54;23.10;77.50
10390;DHT22;5241;47.830;12.972;2022-10-16T14:08:21;22.90;74.10
10390;DHT22;5241;47.830;12.972;2022-10-16T14:10:49;22.90;78.40
10390;DHT22;5241;47.830;12.972;2022-10-16T14:13:29;22.90;76.50
10390;DHT22;5241;47.830;12.972;2022-10-16T14:15:55;22.70;80.30
10390;DHT22;5241;47.830;12.972;2022-10-16T14:18:25;22.50;79.30
10390;DHT22;5241;47.830;12.972;2022-10-16T14:20:52;22.40;78.30
10390;DHT22;5241;47.830;12.972;2022-10-16T14:23:43;22.40;77.10
10390;DHT22;5241;47.830;12.972;2022-10-16T14:28:34;22.40;77.20
10390;DHT22;5241;47.830;12.972;2022-10-16T14:31:01;22.50;78.80
10390;DHT22;5241;47.830;12.972;2022-10-16T14:36:12;22.50;79.20
10390;DHT22;5241;47.830;12.972;2022-10-16T14:38:40;22.40;80.20
10390;DHT22;5241;47.830;12.972;2022-10-16T14:41:06;22.30;81.80
10390;DHT22;5241;47.830;12.972;2022-10-16T14:46:02;22.20;83.00
10390;DHT22;5241;47.830;12.972;2022-10-16T14:48:29;22.20;83.90
10390;DHT22;5241;47.830;12.972;2022-10-16T14:50:55;22.30;84.00
10390;DHT22;5241;47.830;12.972;2022-10-16T14:53:21;22.30;84.40
10390;DHT22;5241;47.830;12.972;2022-10-16T14:55:46;22.20;83.00
10390;DHT22;5241;47.830;12.972;2022-10-16T14:58:19;22.20;84.10
10390;DHT22;5241;47.830;12.972;2022-10-16T15:00:45;22.20;83.30
10390;DHT22;5241;47.830;12.972;2022-10-16T15:03:11;22.20;84.90
10390;DHT22;5241;47.830;12.972;2022-10-16T15:05:36;22.10;84.30
10390;DHT22;5241;47.830;12.972;2022-10-16T15:08:02;22.10;84.00
10390;DHT22;5241;47.830;12.972;2022-10-16T15:10:30;22.10;84.40
10390;DHT22;5241;47.830;12.972;2022-10-16T15:12:57;22.00;83.30
10390;DHT22;5241;47.830;12.972;2022-10-16T15:17:48;21.70;85.60
10390;DHT22;5241;47.830;12.972;2022-10-16T15:20:14;21.50;86.50
10390;DHT22;5241;47.830;12.972;2022-10-16T15:22:39;21.50;85.60
10390;DHT22;5241;47.830;12.972;2022-10-16T15:25:36;21.50;85.60
10390;DHT22;5241;47.830;12.972;2022-10-16T15:28:03;21.40;86.00
10390;DHT22;5241;47.830;12.972;2022-10-16T15:30:29;21.40;86.10
10390;DHT22;5241;47.830;12.972;2022-10-16T15:32:55;21.20;87.50
10390;DHT22;5241;47.830;12.972;2022-10-16T15:35:21;21.10;89.00
10390;DHT22;5241;47.830;12.972;2022-10-16T15:37:47;20.90;90.40
10390;DHT22;5241;47.830;12.972;2022-10-16T15:40:14;20.80;90.40
10390;DHT22;5241;47.830;12.972;2022-10-16T15:42:39;20.70;90.80
10390;DHT22;5241;47.830;12.972;2022-10-16T15:45:05;20.60;91.60
10390;DHT22;5241;47.830;12.972;2022-10-16T15:47:32;20.40;92.20
10390;DHT22;5241;47.830;12.972;2022-10-16T15:49:57;20.20;92.50
10390;DHT22;5241;47.830;12.972;2022-10-16T15:52:23;20.10;93.50
10390;DHT22;5241;47.830;12.972;2022-10-16T15:54:48;19.90;95.20
10390;DHT22;5241;47.830;12.972;2022-10-16T15:57:14;19.70;96.50
10390;DHT22;5241;47.830;12.972;2022-10-16T15:59:39;19.60;97.30
10390;DHT22;5241;47.830;12.972;2022-10-16T16:02:05;19.40;99.90
10390;DHT22;5241;47.830;12.972;2022-10-16T16:04:31;19.30;99.90
10390;DHT22;5241;47.830;12.972;2022-10-16T16:06:57;19.20;99.90
10390;DHT22;5241;47.830;12.972;2022-10-16T16:09:22;18.90;99.90
10390;DHT22;5241;47.830;12.972;2022-10-16T16:11:49;18.70;99.90
10390;DHT22;5241;47.830;12.972;2022-10-16T16:14:15;18.60;99.90
10390;DHT22;5241;47.830;12.972;2022-10-16T16:16:41;18.40;99.90
10390;DHT22;5241;47.830;12.972;2022-10-16T16:19:07;18.30;99.90
10390;DHT22;5241;47.830;12.972;2022-10-16T16:21:34;18.10;99.90
10390;DHT22;5241;47.830;12.972;2022-10-16T16:23:59;17.90;99.90
10390;DHT22;5241;47.830;12.972;2022-10-16T16:26:27;17.70;99.90
10390;DHT22;5241;47.830;12.972;2022-10-16T16:28:54;17.60;99.90
10390;DHT22;5241;47.830;12.972;2022-10-16T16:31:20;17.50;99.90
10390;DHT22;5241;47.830;12.972;2022-10-16T16:33:48;17.30;99.90
10390;DHT22;5241;47.830;12.972;2022-10-16T16:36:16;17.20;99.90
10390;DHT22;5241;47.830;12.972;2022-10-16T16:38:44;17.10;99.90
10390;DHT22;5241;47.830;12.972;2022-10-16T16:41:17;17.00;99.90
10390;DHT22;5241;47.830;12.972;2022-10-16T16:43:43;16.90;99.90
10390;DHT22;5241;47.830;12.972;2022-10-16T16:46:10;16.80;99.90
10390;DHT22;5241;47.830;12.972;2022-10-16T16:48:36;16.80;99.90
10390;DHT22;5241;47.830;12.972;2022-10-16T16:51:12;16.70;99.90
10390;DHT22;5241;47.830;12.972;2022-10-16T16:53:44;16.50;99.90
10390;DHT22;5241;47.830;12.972;2022-10-16T16:56:10;16.60;99.90
10390;DHT22;5241;47.830;12.972;2022-10-16T16:58:35;16.60;99.90
10390;DHT22;5241;47.830;12.972;2022-10-16T17:01:02;16.50;99.90
10390;DHT22;5241;47.830;12.972;2022-10-16T17:03:28;16.50;99.90
10390;DHT22;5241;47.830;12.972;2022-10-16T17:06:01;16.30;99.90
10390;DHT22;5241;47.830;12.972;2022-10-16T17:08:27;16.20;99.90
10390;DHT22;5241;47.830;12.972;2022-10-16T17:10:54;16.00;99.90
10390;DHT22;5241;47.830;12.972;2022-10-16T17:13:24;16.00;99.90
10390;DHT22;5241;47.830;12.972;2022-10-16T17:15:51;16.10;99.90
10390;DHT22;5241;47.830;12.972;2022-10-16T17:18:17;16.00;99.90
10390;DHT22;5241;47.830;12.972;2022-10-16T17:20:43;15.90;99.90
10390;DHT22;5241;47.830;12.972;2022-10-16T17:23:10;15.80;99.90
10390;DHT22;5241;47.830;12.972;2022-10-16T17:25:39;15.70;99.90
10390;DHT22;5241;47.830;12.972;2022-10-16T17:28:06;15.50;99.90
10390;DHT22;5241;47.830;12.972;2022-10-16T17:30:33;15.50;99.90
10390;DHT22;5241;47.830;12.972;2022-10-16T17:33:00;15.50;99.90
10390;DHT22;5241;47.830;12.972;2022-10-16T17:35:26;15.50;99.90
10390;DHT22;5241;47.830;12.972;2022-10-16T17:37:52;15.30;99.90
10390;DHT22;5241;47.830;12.972;2022-10-16T17:40:18;15.30;99.90
10390;DHT22;5241;47.830;12.972;2022-10-16T17:42:44;15.30;99.90
10390;DHT22;5241;47.830;12.972;2022-10-16T17:45:10;15.10;99.90